createdAt,value
2023-03-11T00:00:28.542Z,9.00
2023-03-11T00:03:18.734Z,9.06
2023-03-11T00:05:47.700Z,9.00
2023-03-11T00:08:18.248Z,9.00
2023-03-11T00:10:48.451Z,9.10
2023-03-11T00:13:17.487Z,9.06
2023-03-11T00:15:49.250Z,9.10
2023-03-11T00:18:18.459Z,9.10
2023-03-11T00:20:47.874Z,9.10
2023-03-11T00:23:16.697Z,9.06
2023-03-11T00:25:46.260Z,9.00
2023-03-11T00:28:15.483Z,9.00
2023-03-11T00:30:45.972Z,9.00
2023-03-11T00:33:16.332Z,9.00
2023-03-11T00:35:45.278Z,9.00
2023-03-11T00:38:16.069Z,9.00
2023-03-11T00:40:46.426Z,9.00
2023-03-11T00:43:15.450Z,9.00
2023-03-11T00:45:44.329Z,9.00
2023-03-11T00:48:13.641Z,9.00
2023-03-11T00:50:42.351Z,8.98
2023-03-11T00:53:12.018Z,8.98
2023-03-11T00:55:41.510Z,8.90
2023-03-11T00:58:12.917Z,8.90
2023-03-11T01:00:48.408Z,8.90
2023-03-11T01:03:17.152Z,8.90
2023-03-11T01:05:47.169Z,8.90
2023-03-11T01:08:16.251Z,8.80
2023-03-11T01:10:44.928Z,8.80
2023-03-11T01:13:14.427Z,8.74
2023-03-11T01:15:43.148Z,8.70
2023-03-11T01:18:11.942Z,8.60
2023-03-11T01:20:40.805Z,8.50
2023-03-11T01:23:09.550Z,8.32
2023-03-11T01:25:38.441Z,8.22
2023-03-11T01:28:08.204Z,8.10
2023-03-11T01:30:39.224Z,7.92
2023-03-11T01:33:08.830Z,7.80
2023-03-11T01:35:39.472Z,7.70
2023-03-11T01:38:08.178Z,7.60
2023-03-11T01:40:40.088Z,7.58
2023-03-11T01:43:39.366Z,7.50
2023-03-11T01:46:14.560Z,7.50
2023-03-11T01:48:47.107Z,7.46
2023-03-11T01:51:17.803Z,7.40
2023-03-11T01:53:46.636Z,7.40
2023-03-11T01:56:16.505Z,7.40
2023-03-11T01:58:48.506Z,7.30
2023-03-11T02:01:17.379Z,7.30
2023-03-11T02:03:46.235Z,7.20
2023-03-11T02:06:17.466Z,7.20
2023-03-11T02:08:46.315Z,7.10
2023-03-11T02:11:17.570Z,7.10
2023-03-11T02:13:46.435Z,7.08
2023-03-11T02:16:16.097Z,7.00
2023-03-11T02:18:45.722Z,7.00
2023-03-11T02:21:23.442Z,7.00
2023-03-11T02:23:57.291Z,6.92
2023-03-11T02:26:30.714Z,6.90
2023-03-11T02:29:00.597Z,6.90
2023-03-11T02:31:29.670Z,6.90
2023-03-11T02:33:59.908Z,6.90
2023-03-11T02:36:37.071Z,6.90
2023-03-11T02:39:07.432Z,6.90
2023-03-11T02:41:39.470Z,6.80
2023-03-11T02:44:10.326Z,6.80
2023-03-11T02:46:41.079Z,6.80
2023-03-11T02:49:10.456Z,6.70
2023-03-11T02:51:39.069Z,6.70
2023-03-11T02:54:08.030Z,6.70
2023-03-11T02:56:36.988Z,6.70
2023-03-11T02:59:05.580Z,6.60
2023-03-11T03:01:34.277Z,6.60
2023-03-11T03:04:03.082Z,6.60
2023-03-11T03:06:33.647Z,6.60
2023-03-11T03:09:02.826Z,6.60
2023-03-11T03:11:31.635Z,6.52
2023-03-11T03:14:00.304Z,6.50
2023-03-11T03:16:29.088Z,6.50
2023-03-11T03:18:57.831Z,6.28
2023-03-11T03:21:26.860Z,6.00
2023-03-11T03:23:56.172Z,5.70
2023-03-11T03:26:24.959Z,5.40
2023-03-11T03:28:53.744Z,5.10
2023-03-11T03:31:22.730Z,4.90
2023-03-11T03:33:51.565Z,4.70
2023-03-11T03:36:20.484Z,4.60
2023-03-11T03:38:55.850Z,4.50
2023-03-11T03:41:24.878Z,4.38
2023-03-11T03:43:54.173Z,4.30
2023-03-11T03:46:23.069Z,4.20
2023-03-11T03:48:52.197Z,4.18
2023-03-11T03:51:21.042Z,4.12
2023-03-11T03:54:03.984Z,4.10
2023-03-11T03:56:32.777Z,4.10
2023-03-11T03:59:01.888Z,4.10
2023-03-11T04:01:35.853Z,4.00
2023-03-11T04:04:05.074Z,4.00
2023-03-11T04:06:33.874Z,4.00
2023-03-11T04:09:05.454Z,4.00
2023-03-11T04:11:36.380Z,3.94
2023-03-11T04:14:06.051Z,3.90
2023-03-11T04:16:37.810Z,3.90
2023-03-11T04:19:09.332Z,3.90
2023-03-11T04:21:38.970Z,3.86
2023-03-11T04:24:08.319Z,3.80
2023-03-11T04:26:38.009Z,3.70
2023-03-11T04:29:08.249Z,3.60
2023-03-11T04:31:40.978Z,3.50
2023-03-11T04:34:09.812Z,3.40
2023-03-11T04:36:39.140Z,3.30
2023-03-11T04:39:08.384Z,3.30
2023-03-11T04:41:41.269Z,3.28
2023-03-11T04:44:10.497Z,3.20
2023-03-11T04:46:39.452Z,3.10
2023-03-11T04:49:09.411Z,3.10
2023-03-11T04:51:38.199Z,3.02
2023-03-11T04:54:07.394Z,3.00
2023-03-11T04:56:36.184Z,2.90
2023-03-11T04:59:05.304Z,2.90
2023-03-11T05:01:34.699Z,2.84
2023-03-11T05:04:04.922Z,2.80
2023-03-11T05:06:33.844Z,2.76
2023-03-11T05:09:04.194Z,2.70
2023-03-11T05:11:35.688Z,2.70
2023-03-11T05:14:04.723Z,2.70
2023-03-11T05:16:33.479Z,2.70
2023-03-11T05:19:22.280Z,2.70
2023-03-11T05:21:51.568Z,2.60
2023-03-11T05:24:20.750Z,2.54
2023-03-11T05:26:49.571Z,2.50
2023-03-11T05:29:18.991Z,2.48
2023-03-11T05:31:48.588Z,2.40
2023-03-11T05:34:17.717Z,2.40
2023-03-11T05:36:47.000Z,2.30
2023-03-11T05:39:16.117Z,2.30
2023-03-11T05:41:45.096Z,2.22
2023-03-11T05:44:14.028Z,2.20
2023-03-11T05:46:43.450Z,2.20
2023-03-11T05:49:12.347Z,2.20
2023-03-11T05:51:41.118Z,2.20
2023-03-11T05:54:14.456Z,2.14
2023-03-11T05:56:45.144Z,2.12
2023-03-11T05:59:16.553Z,2.14
2023-03-11T06:01:46.825Z,2.10
2023-03-11T06:04:15.856Z,2.10
2023-03-11T06:06:44.794Z,2.10
2023-03-11T06:09:14.571Z,2.10
2023-03-11T06:11:43.422Z,2.08
2023-03-11T06:14:13.602Z,2.00
2023-03-11T06:16:43.269Z,2.00
2023-03-11T06:19:13.424Z,1.96
2023-03-11T06:21:45.204Z,1.90
2023-03-11T06:24:13.820Z,1.90
2023-03-11T06:26:43.521Z,1.90
2023-03-11T06:29:14.667Z,1.88
2023-03-11T06:31:43.720Z,1.80
2023-03-11T06:34:13.895Z,1.80
2023-03-11T06:36:42.792Z,1.80
2023-03-11T06:39:13.738Z,1.80
2023-03-11T06:41:42.806Z,1.80
2023-03-11T06:44:11.781Z,1.80
2023-03-11T06:46:40.824Z,1.80
2023-03-11T06:49:09.630Z,1.80
2023-03-11T06:51:39.484Z,1.78
2023-03-11T06:54:09.312Z,1.78
2023-03-11T06:56:37.969Z,1.80
2023-03-11T06:59:07.983Z,1.80
2023-03-11T07:01:37.532Z,1.80
2023-03-11T07:04:07.412Z,1.80
2023-03-11T07:06:36.863Z,1.80
2023-03-11T07:09:12.729Z,1.84
2023-03-11T07:11:44.010Z,1.88
2023-03-11T07:14:15.786Z,1.90
2023-03-11T07:16:47.838Z,1.90
2023-03-11T07:19:26.158Z,1.90
2023-03-11T07:21:54.887Z,1.90
2023-03-11T07:24:23.607Z,1.92
2023-03-11T07:26:52.238Z,1.92
2023-03-11T07:29:21.185Z,2.00
2023-03-11T07:31:49.951Z,2.00
2023-03-11T07:34:18.948Z,2.00
2023-03-11T07:36:47.726Z,2.00
2023-03-11T07:39:18.856Z,2.00
2023-03-11T07:41:47.780Z,2.00
2023-03-11T07:44:17.373Z,2.00
2023-03-11T07:46:46.182Z,2.00
2023-03-11T07:49:15.183Z,1.94
2023-03-11T07:51:44.343Z,1.90
2023-03-11T07:54:13.488Z,1.90
2023-03-11T07:56:42.338Z,1.90
2023-03-11T07:59:11.033Z,1.90
2023-03-11T08:01:40.762Z,1.90
2023-03-11T08:04:14.228Z,2.00
2023-03-11T08:06:44.824Z,2.00
2023-03-11T08:09:13.854Z,2.10
2023-03-11T08:11:42.543Z,2.20
2023-03-11T08:14:11.111Z,2.20
2023-03-11T08:16:41.255Z,2.20
2023-03-11T08:19:11.997Z,2.20
2023-03-11T08:21:40.754Z,2.20
2023-03-11T08:24:11.939Z,2.10
2023-03-11T08:26:41.110Z,2.10
2023-03-11T08:29:09.711Z,2.10
2023-03-11T08:31:38.465Z,2.10
2023-03-11T08:34:09.817Z,2.10
2023-03-11T08:36:38.719Z,2.10
2023-03-11T08:39:07.574Z,2.10
2023-03-11T08:41:36.272Z,2.10
2023-03-11T08:44:05.263Z,2.10
2023-03-11T08:46:36.411Z,2.10
2023-03-11T08:49:05.631Z,2.10
2023-03-11T08:51:34.923Z,2.10
2023-03-11T08:54:04.079Z,2.08
2023-03-11T08:56:32.758Z,2.10
2023-03-11T08:59:01.391Z,2.10
2023-03-11T09:01:30.626Z,2.10
2023-03-11T09:03:59.709Z,2.10
2023-03-11T09:06:29.776Z,2.20
2023-03-11T09:08:58.462Z,2.20
2023-03-11T09:11:27.234Z,2.30
2023-03-11T09:13:55.890Z,2.30
2023-03-11T09:16:25.136Z,2.40
2023-03-11T09:18:54.174Z,2.40
2023-03-11T09:21:22.948Z,2.40
2023-03-11T09:23:52.034Z,2.40
2023-03-11T09:26:21.309Z,2.36
2023-03-11T09:28:49.960Z,2.30
2023-03-11T09:31:19.245Z,2.30
2023-03-11T09:33:49.494Z,2.30
2023-03-11T09:36:20.092Z,2.36
2023-03-11T09:38:48.969Z,2.48
2023-03-11T09:41:26.777Z,2.60
2023-03-11T09:44:04.149Z,2.60
2023-03-11T09:46:52.760Z,2.70
2023-03-11T09:49:25.998Z,2.80
2023-03-11T09:51:58.153Z,2.90
2023-03-11T09:54:30.115Z,2.90
2023-03-11T09:56:59.839Z,3.00
2023-03-11T09:59:31.269Z,3.20
2023-03-11T10:02:00.627Z,3.30
2023-03-11T10:04:33.173Z,3.40
2023-03-11T10:07:03.183Z,3.52
2023-03-11T10:09:39.172Z,3.58
2023-03-11T10:12:19.050Z,3.42
2023-03-11T10:15:00.990Z,3.30
2023-03-11T10:17:51.730Z,3.20
2023-03-11T10:20:22.934Z,3.10
2023-03-11T10:22:58.380Z,3.10
2023-03-11T10:25:28.796Z,3.00
2023-03-11T10:28:02.644Z,3.00
2023-03-11T10:30:35.522Z,3.00
2023-03-11T10:33:10.325Z,3.04
2023-03-11T10:35:40.899Z,3.00
2023-03-11T10:38:14.508Z,3.10
2023-03-11T10:40:44.592Z,3.20
2023-03-11T10:43:16.259Z,3.38
2023-03-11T10:45:47.989Z,3.50
2023-03-11T10:48:18.944Z,3.70
2023-03-11T10:50:50.825Z,3.70
2023-03-11T10:53:20.725Z,3.80
2023-03-11T10:55:50.444Z,3.90
2023-03-11T10:58:21.445Z,4.00
2023-03-11T11:01:02.361Z,4.10
2023-03-11T11:03:31.374Z,4.10
2023-03-11T11:06:05.338Z,4.10
2023-03-11T11:08:34.482Z,4.00
2023-03-11T11:11:05.027Z,3.80
2023-03-11T11:13:34.966Z,3.60
2023-03-11T11:16:05.438Z,3.40
2023-03-11T11:18:36.979Z,3.30
2023-03-11T11:21:08.096Z,3.20
2023-03-11T11:23:41.018Z,3.58
2023-03-11T11:26:17.062Z,4.26
2023-03-11T11:28:45.898Z,4.90
2023-03-11T11:31:26.944Z,5.30
2023-03-11T11:33:56.314Z,5.38
2023-03-11T11:36:28.893Z,4.92
2023-03-11T11:38:59.305Z,4.54
2023-03-11T11:41:29.085Z,4.20
2023-03-11T11:44:00.016Z,4.00
2023-03-11T11:46:34.005Z,4.12
2023-03-11T11:49:11.926Z,4.94
2023-03-11T11:51:42.743Z,5.40
2023-03-11T11:54:18.093Z,5.70
2023-03-11T11:56:47.086Z,5.90
2023-03-11T11:59:18.889Z,5.90
2023-03-11T12:01:58.529Z,5.70
2023-03-11T12:04:48.145Z,5.32
2023-03-11T12:07:24.853Z,5.00
2023-03-11T12:09:57.849Z,4.90
2023-03-11T12:12:32.824Z,4.90
2023-03-11T12:15:07.368Z,4.90
2023-03-11T12:17:38.009Z,4.80
2023-03-11T12:20:12.495Z,4.60
2023-03-11T12:23:04.913Z,4.30
2023-03-11T12:25:40.306Z,4.10
2023-03-11T12:28:18.173Z,3.90
2023-03-11T12:30:49.993Z,3.80
2023-03-11T12:33:24.414Z,3.90
2023-03-11T12:35:55.641Z,3.90
2023-03-11T12:38:32.401Z,4.10
2023-03-11T12:41:28.410Z,4.40
2023-03-11T12:44:20.146Z,4.70
2023-03-11T12:47:03.430Z,4.90
2023-03-11T12:49:33.686Z,4.90
2023-03-11T12:52:04.152Z,4.64
2023-03-11T12:54:34.236Z,4.38
2023-03-11T12:57:05.714Z,4.10
2023-03-11T12:59:52.061Z,3.80
2023-03-11T13:02:31.698Z,3.60
2023-03-11T13:05:07.168Z,3.40
2023-03-11T13:07:48.330Z,3.40
2023-03-11T13:10:38.133Z,3.30
2023-03-11T13:13:37.990Z,3.10
2023-03-11T13:16:37.770Z,3.00
2023-03-11T13:19:37.072Z,3.00
2023-03-11T13:22:26.617Z,2.90
2023-03-11T13:24:55.298Z,2.80
2023-03-11T13:27:34.440Z,2.80
2023-03-11T13:30:09.828Z,2.86
2023-03-11T13:32:57.304Z,2.90
2023-03-11T13:35:38.742Z,2.92
2023-03-11T13:38:20.719Z,2.90
2023-03-11T13:40:51.166Z,2.90
2023-03-11T13:43:21.486Z,2.98
2023-03-11T13:45:53.780Z,2.90
2023-03-11T13:48:27.849Z,2.90
2023-03-11T13:50:59.005Z,2.90
2023-03-11T13:53:31.952Z,2.90
2023-03-11T13:56:00.694Z,3.00
2023-03-11T13:58:29.505Z,3.10
2023-03-11T14:00:59.509Z,3.10
2023-03-11T14:03:32.085Z,3.10
2023-03-11T14:06:03.157Z,3.00
2023-03-11T14:08:34.517Z,2.90
2023-03-11T14:11:04.335Z,2.80
2023-03-11T14:13:33.698Z,2.70
2023-03-11T14:16:05.936Z,2.70
2023-03-11T14:18:39.650Z,2.70
2023-03-11T14:21:13.253Z,2.78
2023-03-11T14:23:44.491Z,2.80
2023-03-11T14:26:17.589Z,2.80
2023-03-11T14:28:49.135Z,2.80
2023-03-11T14:31:32.085Z,2.80
2023-03-11T14:34:04.296Z,2.90
2023-03-11T14:36:41.883Z,2.96
2023-03-11T14:39:27.862Z,3.00
2023-03-11T14:42:03.353Z,3.10
2023-03-11T14:44:34.682Z,3.10
2023-03-11T14:47:08.633Z,3.10
2023-03-11T14:49:37.623Z,3.18
2023-03-11T14:52:11.365Z,3.20
2023-03-11T14:54:41.361Z,3.30
2023-03-11T14:57:18.406Z,3.30
2023-03-11T14:59:49.470Z,3.30
2023-03-11T15:02:36.728Z,3.20
2023-03-11T15:05:11.598Z,3.20
2023-03-11T15:07:40.368Z,3.20
2023-03-11T15:10:11.988Z,3.20
2023-03-11T15:12:42.887Z,3.20
2023-03-11T15:15:29.077Z,3.20
2023-03-11T15:17:59.171Z,3.10
2023-03-11T15:20:30.629Z,3.10
2023-03-11T15:23:01.194Z,3.08
2023-03-11T15:25:33.652Z,3.00
2023-03-11T15:28:15.104Z,3.00
2023-03-11T15:30:46.509Z,3.00
2023-03-11T15:33:32.814Z,3.00
2023-03-11T15:36:01.692Z,3.00
2023-03-11T15:38:30.646Z,3.08
2023-03-11T15:41:01.605Z,3.10
2023-03-11T15:43:31.099Z,3.10
2023-03-11T15:46:00.949Z,3.08
2023-03-11T15:48:30.730Z,3.00
2023-03-11T15:51:00.337Z,3.00
2023-03-11T15:53:29.996Z,3.00
2023-03-11T15:56:07.453Z,3.00
2023-03-11T15:58:37.999Z,2.98
2023-03-11T16:01:07.912Z,2.90
2023-03-11T16:03:38.336Z,2.90
2023-03-11T16:06:07.603Z,2.90
2023-03-11T16:08:36.236Z,2.90
2023-03-11T16:11:05.451Z,2.90
2023-03-11T16:13:34.263Z,2.90
2023-03-11T16:16:04.745Z,2.90
2023-03-11T16:18:35.222Z,2.86
2023-03-11T16:21:08.061Z,2.80
2023-03-11T16:23:50.666Z,2.80
2023-03-11T16:26:21.759Z,2.80
2023-03-11T16:28:50.489Z,2.70
2023-03-11T16:31:19.230Z,2.70
2023-03-11T16:33:47.961Z,2.70
2023-03-11T16:36:16.588Z,2.70
2023-03-11T16:38:47.122Z,2.70
2023-03-11T16:41:16.459Z,2.70
2023-03-11T16:43:45.767Z,2.66
2023-03-11T16:46:14.546Z,2.62
2023-03-11T16:48:43.421Z,2.60
2023-03-11T16:51:12.016Z,2.60
2023-03-11T16:53:40.838Z,2.60
2023-03-11T16:56:09.551Z,2.60
2023-03-11T16:58:38.255Z,2.58
2023-03-11T17:01:06.989Z,2.50
2023-03-11T17:03:42.613Z,2.50
2023-03-11T17:06:11.732Z,2.50
2023-03-11T17:08:40.380Z,2.50
2023-03-11T17:11:18.021Z,2.50
2023-03-11T17:13:46.817Z,2.50
2023-03-11T17:16:15.655Z,2.50
2023-03-11T17:18:44.487Z,2.50
2023-03-11T17:21:14.972Z,2.50
2023-03-11T17:23:44.053Z,2.50
2023-03-11T17:26:14.536Z,2.50
2023-03-11T17:28:43.349Z,2.50
2023-03-11T17:31:15.809Z,2.50
2023-03-11T17:33:44.885Z,2.50
2023-03-11T17:36:15.538Z,2.50
2023-03-11T17:38:44.582Z,2.48
2023-03-11T17:41:15.202Z,2.42
2023-03-11T17:43:45.034Z,2.40
2023-03-11T17:46:15.360Z,2.40
2023-03-11T17:48:45.420Z,2.30
2023-03-11T17:51:15.561Z,2.30
2023-03-11T17:53:46.007Z,2.20
2023-03-11T17:56:16.369Z,2.20
2023-03-11T17:58:45.242Z,2.12
2023-03-11T18:01:17.980Z,2.10
2023-03-11T18:03:47.133Z,2.06
2023-03-11T18:06:17.260Z,2.00
2023-03-11T18:08:46.054Z,2.00
2023-03-11T18:11:18.738Z,2.00
2023-03-11T18:13:48.109Z,1.90
2023-03-11T18:16:18.387Z,1.90
2023-03-11T18:18:47.428Z,1.90
2023-03-11T18:21:17.327Z,1.80
2023-03-11T18:23:46.362Z,1.70
2023-03-11T18:26:16.707Z,1.60
2023-03-11T18:28:45.583Z,1.50
2023-03-11T18:31:15.637Z,1.40
2023-03-11T18:33:47.920Z,1.30
2023-03-11T18:36:18.292Z,1.20
2023-03-11T18:38:48.435Z,1.10
2023-03-11T18:41:17.344Z,1.10
2023-03-11T18:43:46.016Z,1.00
2023-03-11T18:46:15.904Z,1.00
2023-03-11T18:48:44.807Z,1.00
2023-03-11T18:51:13.768Z,0.92
2023-03-11T18:53:43.012Z,0.96
2023-03-11T18:56:13.714Z,0.92
2023-03-11T18:58:42.849Z,0.90
2023-03-11T19:01:13.836Z,0.90
2023-03-11T19:03:43.149Z,0.92
2023-03-11T19:06:13.307Z,0.90
2023-03-11T19:08:42.901Z,0.90
2023-03-11T19:11:14.318Z,0.90
2023-03-11T19:13:47.725Z,0.90
2023-03-11T19:16:18.701Z,0.90
2023-03-11T19:18:47.888Z,0.90
2023-03-11T19:21:17.508Z,0.86
2023-03-11T19:23:46.514Z,0.84
2023-03-11T19:26:15.293Z,0.80
2023-03-11T19:28:43.982Z,0.80
2023-03-11T19:31:12.770Z,0.80
2023-03-11T19:33:42.065Z,0.78
2023-03-11T19:36:11.353Z,0.70
2023-03-11T19:38:40.100Z,0.70
2023-03-11T19:41:10.643Z,0.70
2023-03-11T19:43:39.367Z,0.70
2023-03-11T19:46:09.257Z,0.70
2023-03-11T19:48:38.102Z,0.70
2023-03-11T19:51:07.116Z,0.60
2023-03-11T19:53:36.995Z,0.60
2023-03-11T19:56:06.917Z,0.60
2023-03-11T19:58:35.965Z,0.56
2023-03-11T20:01:04.983Z,0.50
2023-03-11T20:03:33.712Z,0.50
2023-03-11T20:06:05.866Z,0.50
2023-03-11T20:08:36.902Z,0.40
2023-03-11T20:11:06.394Z,0.40
2023-03-11T20:13:35.868Z,0.40
2023-03-11T20:16:10.245Z,0.40
2023-03-11T20:18:39.188Z,0.40
2023-03-11T20:21:09.922Z,0.30
2023-03-11T20:23:39.384Z,0.30
2023-03-11T20:26:09.469Z,0.30
2023-03-11T20:28:38.270Z,0.30
2023-03-11T20:31:12.138Z,0.30
2023-03-11T20:33:41.372Z,0.30
2023-03-11T20:36:12.375Z,0.30
2023-03-11T20:38:41.286Z,0.22
2023-03-11T20:41:10.524Z,0.20
2023-03-11T20:43:39.869Z,0.20
2023-03-11T20:46:10.179Z,0.20
2023-03-11T20:48:39.516Z,0.20
2023-03-11T20:51:10.249Z,0.20
2023-03-11T20:53:39.424Z,0.20
2023-03-11T20:56:09.719Z,0.20
2023-03-11T20:58:38.847Z,0.18
2023-03-11T21:01:15.218Z,0.10
2023-03-11T21:03:44.243Z,0.10
2023-03-11T21:06:17.788Z,0.10
2023-03-11T21:08:46.525Z,0.10
2023-03-11T21:11:16.028Z,0.10
2023-03-11T21:13:44.989Z,0.00
2023-03-11T21:16:13.891Z,0.00
2023-03-11T21:18:44.362Z,0.00
2023-03-11T21:21:13.872Z,0.00
2023-03-11T21:23:43.685Z,0.00
2023-03-11T21:26:13.177Z,0.00
2023-03-11T21:28:45.819Z,-0.10
2023-03-11T21:31:16.713Z,-0.10
2023-03-11T21:33:45.881Z,-0.10
2023-03-11T21:36:16.200Z,-0.10
2023-03-11T21:38:45.087Z,-0.10
2023-03-11T21:41:15.424Z,-0.10
2023-03-11T21:43:44.922Z,-0.10
2023-03-11T21:46:15.778Z,-0.16
2023-03-11T21:48:44.887Z,-0.20
2023-03-11T21:51:13.715Z,-0.20
2023-03-11T21:53:42.608Z,-0.20
2023-03-11T21:56:12.743Z,-0.20
2023-03-11T21:58:42.175Z,-0.20
2023-03-11T22:01:11.396Z,-0.20
2023-03-11T22:03:40.523Z,-0.20
2023-03-11T22:06:10.782Z,-0.24
2023-03-11T22:08:39.947Z,-0.26
2023-03-11T22:11:09.984Z,-0.30
2023-03-11T22:13:38.732Z,-0.28
2023-03-11T22:16:08.888Z,-0.30
2023-03-11T22:18:37.808Z,-0.30
2023-03-11T22:21:08.183Z,-0.30
2023-03-11T22:23:38.809Z,-0.30
2023-03-11T22:26:08.434Z,-0.30
2023-03-11T22:28:37.551Z,-0.30
2023-03-11T22:31:10.940Z,-0.30
2023-03-11T22:33:40.037Z,-0.30
2023-03-11T22:36:10.212Z,-0.38
2023-03-11T22:38:42.193Z,-0.40
2023-03-11T22:41:11.389Z,-0.40
2023-03-11T22:43:40.078Z,-0.40
2023-03-11T22:46:09.272Z,-0.40
2023-03-11T22:48:38.646Z,-0.46
2023-03-11T22:51:08.947Z,-0.44
2023-03-11T22:53:38.333Z,-0.42
2023-03-11T22:56:13.416Z,-0.40
2023-03-11T22:58:43.883Z,-0.40
2023-03-11T23:01:13.496Z,-0.40
2023-03-11T23:03:43.760Z,-0.40
2023-03-11T23:06:15.520Z,-0.40
2023-03-11T23:08:44.882Z,-0.40
2023-03-11T23:11:17.291Z,-0.40
2023-03-11T23:13:47.512Z,-0.40
2023-03-11T23:16:21.911Z,-0.40
2023-03-11T23:18:54.161Z,-0.40
2023-03-11T23:21:24.699Z,-0.40
2023-03-11T23:23:53.773Z,-0.40
2023-03-11T23:26:23.638Z,-0.40
2023-03-11T23:28:53.171Z,-0.40
2023-03-11T23:31:24.284Z,-0.40
2023-03-11T23:33:53.338Z,-0.40
2023-03-11T23:36:23.449Z,-0.40
2023-03-11T23:38:52.143Z,-0.40
2023-03-11T23:41:23.153Z,-0.40
2023-03-11T23:43:51.905Z,-0.40
2023-03-11T23:46:20.817Z,-0.38
2023-03-11T23:48:49.610Z,-0.30
2023-03-11T23:51:18.338Z,-0.30
2023-03-11T23:53:47.025Z,-0.30
2023-03-11T23:56:17.135Z,-0.30
2023-03-11T23:58:46.594Z,-0.30
